createdAt,value
2022-12-25T07:00:13.192Z,12.00
2022-12-25T07:02:48.590Z,11.00
2022-12-25T07:05:16.552Z,12.00
2022-12-25T07:07:44.379Z,12.00
2022-12-25T07:10:12.139Z,12.00
2022-12-25T07:12:39.950Z,12.80
2022-12-25T07:15:08.645Z,14.60
2022-12-25T07:17:36.374Z,12.50
2022-12-25T07:20:04.419Z,14.80
2022-12-25T07:22:32.186Z,12.30
2022-12-25T07:24:59.927Z,13.30
2022-12-25T07:27:27.674Z,15.00
2022-12-25T07:29:55.465Z,14.50
2022-12-25T07:32:23.201Z,15.10
2022-12-25T07:34:50.979Z,12.70
2022-12-25T07:37:18.713Z,15.70
2022-12-25T07:39:46.496Z,15.10
2022-12-25T07:42:14.363Z,13.70
2022-12-25T07:44:42.185Z,13.10
2022-12-25T07:47:10.030Z,13.70
2022-12-25T07:49:37.877Z,17.40
2022-12-25T07:52:05.676Z,16.50
2022-12-25T07:54:33.384Z,11.90
2022-12-25T07:57:01.142Z,14.60
2022-12-25T07:59:28.881Z,17.90
2022-12-25T08:01:56.819Z,13.50
2022-12-25T08:04:24.759Z,14.90
2022-12-25T08:06:52.539Z,14.70
2022-12-25T08:09:20.328Z,13.20
2022-12-25T08:11:48.083Z,16.10
2022-12-25T08:14:16.017Z,13.10
2022-12-25T08:16:44.726Z,14.20
2022-12-25T08:19:14.619Z,13.20
2022-12-25T08:21:42.367Z,13.10
2022-12-25T08:24:10.943Z,13.90
2022-12-25T08:26:38.722Z,12.60
2022-12-25T08:29:06.554Z,11.90
2022-12-25T08:31:37.243Z,14.30
2022-12-25T08:34:07.510Z,14.20
2022-12-25T08:36:35.569Z,11.10
2022-12-25T08:39:05.212Z,12.50
2022-12-25T08:41:33.010Z,12.70
2022-12-25T08:44:00.773Z,12.10
2022-12-25T08:46:28.644Z,11.50
2022-12-25T08:48:56.999Z,14.50
2022-12-25T08:51:26.296Z,12.00
2022-12-25T08:53:59.343Z,13.30
2022-12-25T08:56:27.166Z,13.90
2022-12-25T08:58:54.926Z,13.10
2022-12-25T09:01:22.800Z,16.20
2022-12-25T09:03:50.776Z,19.40
2022-12-25T09:06:18.665Z,14.90
2022-12-25T09:08:49.445Z,15.70
2022-12-25T09:11:19.795Z,16.90
2022-12-25T09:13:48.944Z,16.10
2022-12-25T09:16:20.865Z,16.00
2022-12-25T09:18:49.548Z,13.30
2022-12-25T09:21:18.368Z,13.20
2022-12-25T09:23:46.136Z,14.00
2022-12-25T09:26:17.030Z,14.90
2022-12-25T09:28:51.422Z,14.10
2022-12-25T09:31:22.675Z,14.30
2022-12-25T09:33:51.325Z,17.70
2022-12-25T09:36:21.434Z,16.70
2022-12-25T09:38:49.489Z,11.00
2022-12-25T09:41:20.956Z,14.30
2022-12-25T09:46:30.182Z,12.40
2022-12-25T09:49:38.746Z,14.10
2022-12-25T09:52:15.549Z,17.10
2022-12-25T09:55:05.463Z,16.50
2022-12-25T09:57:33.633Z,12.90
2022-12-25T10:00:01.541Z,16.50
2022-12-25T10:02:43.253Z,13.80
2022-12-25T10:05:39.369Z,13.20
2022-12-25T10:08:28.759Z,19.30
2022-12-25T10:11:15.421Z,17.00
2022-12-25T10:13:58.400Z,21.70
2022-12-25T10:17:21.879Z,18.20
2022-12-25T10:20:04.465Z,15.70
2022-12-25T10:22:40.719Z,16.80
2022-12-25T10:25:25.216Z,18.60
2022-12-25T10:27:57.556Z,18.10
2022-12-25T10:30:28.048Z,17.20
2022-12-25T10:32:57.712Z,18.60
2022-12-25T10:35:28.387Z,17.30
2022-12-25T10:38:01.568Z,18.40
2022-12-25T10:40:40.905Z,17.50
2022-12-25T10:43:13.427Z,16.90
2022-12-25T10:45:48.795Z,16.60
2022-12-25T10:48:29.078Z,12.70
2022-12-25T10:50:57.116Z,20.70
2022-12-25T10:53:29.486Z,14.50
2022-12-25T10:55:59.977Z,14.70
2022-12-25T10:58:30.307Z,16.40
2022-12-25T11:01:02.302Z,15.50
2022-12-25T11:03:33.094Z,15.60
2022-12-25T11:06:03.356Z,20.30
2022-12-25T11:08:34.874Z,22.20
2022-12-25T11:11:08.904Z,21.20
2022-12-25T11:13:41.088Z,23.10
2022-12-25T11:16:38.676Z,20.60
2022-12-25T11:19:24.320Z,24.00
2022-12-25T11:21:54.293Z,21.30
2022-12-25T11:24:25.788Z,22.20
2022-12-25T11:29:46.717Z,20.80
2022-12-25T11:32:36.299Z,20.20
2022-12-25T11:35:13.472Z,22.70
2022-12-25T11:37:49.061Z,20.90
2022-12-25T11:40:27.758Z,22.30
2022-12-25T11:43:50.998Z,20.40
2022-12-25T11:46:26.005Z,20.70
2022-12-25T11:49:01.619Z,20.40
2022-12-25T11:51:36.324Z,20.60
2022-12-25T11:54:23.457Z,18.60
2022-12-25T11:56:51.239Z,17.90
2022-12-25T11:59:35.879Z,22.50
2022-12-25T12:02:22.375Z,21.20
2022-12-25T12:05:03.147Z,20.60
2022-12-25T12:07:34.056Z,23.10
2022-12-25T12:10:15.254Z,22.20
2022-12-25T12:13:01.158Z,21.50
2022-12-25T12:15:46.282Z,22.80
2022-12-25T12:18:23.139Z,22.00
2022-12-25T12:21:09.501Z,20.80
2022-12-25T12:23:54.307Z,19.80
2022-12-25T12:26:25.102Z,20.60
2022-12-25T12:28:55.883Z,23.10
2022-12-25T12:31:24.432Z,20.20
2022-12-25T12:33:57.550Z,21.10
2022-12-25T12:36:35.662Z,20.50
2022-12-25T12:39:06.060Z,21.00
2022-12-25T12:41:46.552Z,21.20
2022-12-25T12:44:16.702Z,20.20
2022-12-25T12:46:56.229Z,21.10
2022-12-25T12:49:27.963Z,22.40
2022-12-25T12:52:34.647Z,21.60
2022-12-25T12:55:09.046Z,21.90
2022-12-25T12:57:40.028Z,24.70
2022-12-25T13:00:15.413Z,24.40
2022-12-25T13:03:09.264Z,24.90
2022-12-25T13:05:48.164Z,22.60
2022-12-25T13:08:34.937Z,24.00
2022-12-25T13:11:10.585Z,24.80
2022-12-25T13:13:44.515Z,24.60
2022-12-25T13:16:25.046Z,24.80
2022-12-25T13:18:55.279Z,23.90
2022-12-25T13:21:26.523Z,26.80
2022-12-25T13:24:10.706Z,25.00
2022-12-25T13:26:39.380Z,21.60
2022-12-25T13:29:11.535Z,25.60
2022-12-25T13:31:41.088Z,23.70
2022-12-25T13:34:28.189Z,23.40
2022-12-25T13:36:56.336Z,26.20
2022-12-25T13:39:25.215Z,23.40
2022-12-25T13:42:06.048Z,23.60
2022-12-25T13:44:40.131Z,25.50
2022-12-25T13:47:19.098Z,23.20
2022-12-25T13:49:47.536Z,27.10
2022-12-25T13:52:36.802Z,20.10
2022-12-25T13:55:19.355Z,23.50
2022-12-25T13:58:05.514Z,24.30
2022-12-25T14:00:38.875Z,24.30
2022-12-25T14:03:08.580Z,24.50
2022-12-25T14:05:43.112Z,24.30
2022-12-25T14:08:19.311Z,22.10
2022-12-25T14:10:50.690Z,24.30
2022-12-25T14:15:49.533Z,32.40
2022-12-25T14:18:19.670Z,30.90
2022-12-25T14:21:11.459Z,38.20
2022-12-25T14:23:50.284Z,33.50
2022-12-25T14:26:30.552Z,31.00
2022-12-25T14:29:16.874Z,27.90
2022-12-25T14:31:47.047Z,29.70
2022-12-25T14:34:23.416Z,25.30
2022-12-25T14:36:52.852Z,31.90
2022-12-25T14:39:39.095Z,26.10
2022-12-25T14:42:22.940Z,25.00
2022-12-25T14:45:06.439Z,23.50
2022-12-25T14:47:50.126Z,26.00
2022-12-25T14:50:29.159Z,24.80
2022-12-25T14:52:58.069Z,22.60
2022-12-25T14:55:29.175Z,25.30
2022-12-25T14:58:01.554Z,23.30
2022-12-25T15:00:35.145Z,25.00
2022-12-25T15:03:17.404Z,25.30
2022-12-25T15:05:45.522Z,27.20
2022-12-25T15:08:13.317Z,23.70
2022-12-25T15:13:30.303Z,25.10
2022-12-25T15:16:13.234Z,27.20
2022-12-25T15:18:44.909Z,24.30
2022-12-25T15:24:01.323Z,24.20
2022-12-25T15:26:31.470Z,21.80
2022-12-25T15:28:59.304Z,23.20
2022-12-25T15:31:32.630Z,21.30
2022-12-25T15:34:05.127Z,24.50
2022-12-25T15:36:33.957Z,23.10
2022-12-25T15:39:01.723Z,21.50
2022-12-25T15:41:52.305Z,22.60
2022-12-25T15:44:20.408Z,24.20
2022-12-25T15:46:48.346Z,26.20
2022-12-25T15:49:17.208Z,28.60
2022-12-25T15:51:45.707Z,25.00
2022-12-25T15:54:14.303Z,24.60
2022-12-25T15:56:51.943Z,25.20
2022-12-25T15:59:21.186Z,23.00
2022-12-25T16:01:51.830Z,22.80
2022-12-25T16:04:20.977Z,23.90
2022-12-25T16:06:49.595Z,23.60
2022-12-25T16:09:20.239Z,23.80
2022-12-25T16:11:48.925Z,24.90
2022-12-25T16:14:17.037Z,20.90
2022-12-25T16:16:44.992Z,21.30
2022-12-25T16:19:12.756Z,21.50
2022-12-25T16:21:46.523Z,24.30
2022-12-25T16:24:14.538Z,22.40
2022-12-25T16:26:42.701Z,23.30
2022-12-25T16:29:10.831Z,22.60
2022-12-25T16:31:39.765Z,21.70
2022-12-25T16:34:08.734Z,21.30
2022-12-25T16:36:36.985Z,20.00
2022-12-25T16:39:05.792Z,22.50
2022-12-25T16:41:33.642Z,20.00
2022-12-25T16:44:09.482Z,22.80
2022-12-25T16:46:39.990Z,17.20
2022-12-25T16:49:08.811Z,26.30
2022-12-25T16:51:37.185Z,23.70
2022-12-25T16:54:05.603Z,23.70
2022-12-25T16:56:33.403Z,23.00
2022-12-25T16:59:01.314Z,23.00
2022-12-25T17:01:29.681Z,26.40
2022-12-25T17:04:01.753Z,24.70
2022-12-25T17:06:29.810Z,26.20
2022-12-25T17:09:00.173Z,19.90
2022-12-25T17:11:30.208Z,23.50
2022-12-25T17:14:03.829Z,27.20
2022-12-25T17:16:35.164Z,23.40
2022-12-25T17:19:15.990Z,26.10
2022-12-25T17:21:43.852Z,24.60
2022-12-25T17:24:11.805Z,23.60
2022-12-25T17:26:41.738Z,25.10
2022-12-25T17:29:18.671Z,22.80
2022-12-25T17:31:48.187Z,24.70
2022-12-25T17:34:16.289Z,22.70
2022-12-25T17:36:44.335Z,26.20
2022-12-25T17:39:12.312Z,25.90
2022-12-25T17:41:40.165Z,22.60
2022-12-25T17:44:09.725Z,21.10
2022-12-25T17:46:38.536Z,24.80
2022-12-25T17:49:06.761Z,21.30
2022-12-25T17:51:34.506Z,24.20
2022-12-25T17:54:05.437Z,21.30
2022-12-25T17:56:33.626Z,22.50
2022-12-25T17:59:12.248Z,19.40
2022-12-25T18:01:40.146Z,23.90
2022-12-25T18:04:08.362Z,22.50
2022-12-25T18:06:37.381Z,26.00
2022-12-25T18:09:06.590Z,22.20
2022-12-25T18:11:37.411Z,20.00
2022-12-25T18:14:06.999Z,20.70
2022-12-25T18:16:37.510Z,20.20
2022-12-25T18:19:05.820Z,18.60
2022-12-25T18:21:33.803Z,19.90
2022-12-25T18:24:05.952Z,18.90
2022-12-25T18:26:34.530Z,19.30
2022-12-25T18:29:03.249Z,21.20
2022-12-25T18:31:31.219Z,17.70
2022-12-25T18:34:00.360Z,17.00
2022-12-25T18:36:30.155Z,18.70
2022-12-25T18:38:59.264Z,17.50
2022-12-25T18:41:28.851Z,19.20
2022-12-25T18:43:57.366Z,19.10
2022-12-25T18:46:27.508Z,16.60
2022-12-25T18:48:56.979Z,17.50
2022-12-25T18:51:27.675Z,17.70
2022-12-25T18:53:57.695Z,18.40
2022-12-25T18:56:25.460Z,18.60
2022-12-25T18:58:53.241Z,18.90
2022-12-25T19:01:23.167Z,20.70
2022-12-25T19:03:53.856Z,20.00
2022-12-25T19:06:28.420Z,19.70
2022-12-25T19:08:57.882Z,21.80
2022-12-25T19:11:25.756Z,20.90
2022-12-25T19:13:53.529Z,19.30
2022-12-25T19:16:21.310Z,21.30
2022-12-25T19:18:49.050Z,19.90
2022-12-25T19:21:16.806Z,19.30
2022-12-25T19:23:44.878Z,17.90
2022-12-25T19:26:12.792Z,20.20
2022-12-25T19:28:41.191Z,17.60
2022-12-25T19:31:10.134Z,15.30
2022-12-25T19:33:40.528Z,18.30
2022-12-25T19:36:14.414Z,16.40
2022-12-25T19:38:43.347Z,18.90
2022-12-25T19:41:17.146Z,18.10
2022-12-25T19:43:47.793Z,15.40
2022-12-25T19:46:30.958Z,16.60
2022-12-25T19:49:04.125Z,18.50
2022-12-25T19:51:36.364Z,17.60
2022-12-25T19:54:05.021Z,15.80
2022-12-25T19:56:34.169Z,15.30
2022-12-25T19:59:02.364Z,19.40
2022-12-25T20:01:30.714Z,16.40
2022-12-25T20:03:59.331Z,16.70
2022-12-25T20:06:31.000Z,16.50
2022-12-25T20:09:01.959Z,17.40
2022-12-25T20:11:31.967Z,17.00
2022-12-25T20:14:00.269Z,15.30
2022-12-25T20:16:28.399Z,18.50
2022-12-25T20:18:57.934Z,16.40
2022-12-25T20:21:30.104Z,16.90
2022-12-25T20:23:58.674Z,18.20
2022-12-25T20:26:29.398Z,19.90
2022-12-25T20:28:58.613Z,19.30
2022-12-25T20:31:32.389Z,19.50
2022-12-25T20:34:06.701Z,17.20
2022-12-25T20:36:37.696Z,20.90
2022-12-25T20:39:10.305Z,18.40
2022-12-25T20:41:39.684Z,18.30
2022-12-25T20:44:10.443Z,16.60
2022-12-25T20:46:38.451Z,17.40
2022-12-25T20:49:06.325Z,16.30
2022-12-25T20:51:34.259Z,17.40
2022-12-25T20:54:06.990Z,17.10
2022-12-25T20:56:35.882Z,16.10
2022-12-25T20:59:03.759Z,17.40
2022-12-25T21:01:32.125Z,17.70
2022-12-25T21:04:00.154Z,19.10
2022-12-25T21:06:28.056Z,17.90
2022-12-25T21:08:55.916Z,19.30
2022-12-25T21:11:23.709Z,18.90
2022-12-25T21:13:52.181Z,16.30
2022-12-25T21:16:22.376Z,18.20
2022-12-25T21:18:52.559Z,17.20
2022-12-25T21:21:21.900Z,18.00
2022-12-25T21:23:49.839Z,16.30
2022-12-25T21:26:23.933Z,16.30
2022-12-25T21:28:55.163Z,14.80
2022-12-25T21:31:24.741Z,16.70
2022-12-25T21:33:54.110Z,16.60
2022-12-25T21:36:31.091Z,14.40
2022-12-25T21:38:59.930Z,16.30
2022-12-25T21:41:29.682Z,13.80
2022-12-25T21:43:57.902Z,17.70
2022-12-25T21:46:26.738Z,15.40
2022-12-25T21:48:55.056Z,16.10
2022-12-25T21:51:43.926Z,15.40
2022-12-25T21:54:13.047Z,14.60
2022-12-25T21:56:45.159Z,17.40
2022-12-25T21:59:17.526Z,15.90
